MDT,Max TemperatureF,Mean TemperatureF,Min TemperatureF,Max Dew PointF,MeanDew PointF,Min DewpointF,Max Humidity, Mean Humidity, Min Humidity, Max Sea Level PressureIn, Mean Sea Level PressureIn, Min Sea Level PressureIn, Max VisibilityMiles, Mean VisibilityMiles, Min VisibilityMiles, Max Wind SpeedMPH, Mean Wind SpeedMPH, Max Gust SpeedMPH,PrecipitationIn, CloudCover, Events, WindDirDegrees
2013-9-1,87,69,51,45,38,28,71,36,14,30.19,30.14,30.07,10,9,2,14,5,,0.00,0,,153
2013-9-2,78,66,55,57,46,30,77,47,30,30.11,30.08,30.04,10,10,10,12,5,17,0.00,4,,233
2013-9-3,82,73,64,57,53,45,77,51,32,30.18,30.13,30.08,10,10,5,13,4,23,0.00,4,,355
2013-9-4,84,72,60,61,56,52,94,62,39,30.26,30.22,30.18,10,10,7,23,9,30,0.00,2,,226
2013-9-5,87,74,60,61,54,52,77,50,29,30.21,30.16,30.06,10,9,2,20,6,,0.00,1,Thunderstorm,204
2013-9-6,86,72,57,61,53,48,77,55,27,30.21,30.15,30.09,10,10,2,28,6,43,0.00,3,Thunderstorm,234
2013-9-7,82,71,60,57,54,46,82,60,28,30.18,30.13,30.06,10,10,1,17,9,22,0.00,2,,174
2013-9-8,73,65,57,57,51,43,88,65,43,30.15,30.04,29.93,10,10,10,20,6,29,0.00,3,,102
2013-9-9,71,61,51,52,46,41,82,59,40,30.14,30.04,29.97,10,10,10,13,6,20,0.00,3,,4
2013-9-10,75,63,51,48,44,41,71,52,33,30.22,30.18,30.14,10,10,4,12,3,,0.00,1,,158
2013-9-11,75,63,51,52,45,41,76,52,34,30.34,30.28,30.22,10,10,9,17,6,23,0.00,0,,327
2013-9-12,69,61,53,54,48,43,82,64,43,30.36,30.30,30.18,10,10,10,21,6,24,0.00,3,,139
2013-9-13,68,60,53,55,50,46,88,71,56,30.17,30.03,29.95,10,10,10,15,5,20,0.00,3,,183
2013-9-14,60,56,53,55,52,48,100,85,72,30.16,30.05,29.97,10,10,5,10,4,16,0.00,8,,298
2013-9-15,64,58,53,57,54,52,100,87,68,30.24,30.18,30.11,10,10,6,9,6,,0.00,7,,54
2013-9-16,80,65,50,57,50,45,94,61,28,30.11,30.01,29.92,10,9,2,15,6,18,0.00,0,,195
2013-9-17,75,64,53,54,47,43,88,60,34,29.97,29.87,29.74,10,10,8,18,10,29,0.00,3,Thunderstorm,209
2013-9-18,57,52,46,39,35,34,66,56,47,30.05,29.97,29.79,10,10,10,18,13,37,0.00,2,,263
2013-9-19,60,51,42,39,36,32,81,58,39,30.20,30.15,30.05,10,10,5,15,7,25,0.00,1,,3
2013-9-20,71,56,42,37,34,28,76,47,20,30.19,30.05,29.92,10,10,5,15,7,20,0.00,0,,167
2013-9-21,80,63,46,41,34,28,62,35,17,29.91,29.80,29.68,10,10,5,12,5,,0.00,0,,219
2013-9-22,71,64,57,52,40,36,59,43,29,29.70,29.65,29.59,10,10,10,17,6,29,0.00,3,,271
2013-9-23,64,54,44,41,34,28,81,44,26,29.99,29.87,29.71,10,10,8,21,8,33,0.00,2,,273
2013-9-24,75,60,46,37,32,28,62,36,19,30.01,29.88,29.70,10,10,10,24,9,37,0.00,0,,198
2013-9-25,59,50,41,43,40,36,93,79,42,29.74,29.70,29.66,10,9,2,23,8,38,0.00,7,,315
2013-9-26,42,38,35,39,36,34,100,86,76,29.97,29.86,29.72,10,10,9,17,7,23,0.00,6,,9
2013-9-27,44,38,33,36,33,28,93,84,53,29.99,29.96,29.93,10,10,3,12,7,25,0.00,6,,3
2013-9-28,57,47,37,36,32,28,87,51,41,30.01,29.99,29.94,10,10,10,22,9,39,0.00,2,,241
2013-9-29,66,57,48,37,35,30,62,44,34,29.96,29.82,29.75,10,10,10,17,8,28,0.00,3,,206
2013-9-30,64,56,48,43,39,30,71,51,36,29.90,29.73,29.65,10,10,10,17,9,32,0.00,1,,254